createdAt,value
2023-01-25T00:00:46.183Z,1.70
2023-01-25T00:01:50.487Z,1.70
2023-01-25T00:02:54.025Z,1.70
2023-01-25T00:03:56.712Z,1.70
2023-01-25T00:05:02.438Z,1.70
2023-01-25T00:06:07.065Z,1.70
2023-01-25T00:07:10.580Z,1.70
2023-01-25T00:08:13.136Z,1.70
2023-01-25T00:09:17.719Z,1.70
2023-01-25T00:10:20.927Z,1.70
2023-01-25T00:11:26.840Z,1.70
2023-01-25T00:12:35.049Z,1.70
2023-01-25T00:13:38.427Z,1.70
2023-01-25T00:14:41.130Z,1.70
2023-01-25T00:15:46.235Z,1.70
2023-01-25T00:16:48.767Z,1.70
2023-01-25T00:17:52.401Z,1.70
2023-01-25T00:18:54.786Z,1.70
2023-01-25T00:19:58.797Z,1.70
2023-01-25T00:21:12.016Z,1.70
2023-01-25T00:22:27.386Z,1.70
2023-01-25T00:23:29.765Z,1.70
2023-01-25T00:24:35.785Z,1.70
2023-01-25T00:25:38.787Z,1.70
2023-01-25T00:26:43.957Z,1.70
2023-01-25T00:27:46.445Z,1.70
2023-01-25T00:28:54.144Z,1.70
2023-01-25T00:29:59.596Z,1.70
2023-01-25T00:31:04.259Z,1.70
2023-01-25T00:32:50.519Z,1.70
2023-01-25T00:34:01.176Z,1.70
2023-01-25T00:35:04.967Z,1.70
2023-01-25T00:36:44.532Z,1.70
2023-01-25T00:37:52.990Z,1.70
2023-01-25T00:39:05.407Z,1.70
2023-01-25T00:40:20.467Z,1.70
2023-01-25T00:41:22.951Z,1.70
2023-01-25T00:42:28.662Z,1.70
2023-01-25T00:43:32.733Z,1.70
2023-01-25T00:44:36.421Z,1.70
2023-01-25T00:45:42.700Z,1.70
2023-01-25T00:46:45.348Z,1.70
2023-01-25T00:47:49.081Z,1.70
2023-01-25T00:48:55.068Z,1.70
2023-01-25T00:49:58.690Z,1.70
2023-01-25T00:51:02.145Z,1.70
2023-01-25T00:52:06.454Z,1.70
2023-01-25T00:53:12.918Z,1.70
2023-01-25T00:54:16.033Z,1.70
2023-01-25T00:55:20.125Z,1.70
2023-01-25T00:56:24.947Z,1.70
2023-01-25T00:57:28.954Z,1.70
2023-01-25T00:58:31.712Z,1.70
2023-01-25T00:59:39.256Z,1.70
2023-01-25T01:00:41.621Z,1.60
2023-01-25T01:01:45.567Z,1.70
2023-01-25T01:02:49.319Z,1.60
2023-01-25T01:03:52.901Z,1.60
2023-01-25T01:04:57.409Z,1.60
2023-01-25T01:06:07.012Z,1.60
2023-01-25T01:07:15.683Z,1.60
2023-01-25T01:08:19.692Z,1.60
2023-01-25T01:09:24.816Z,1.60
2023-01-25T01:10:28.425Z,1.60
2023-01-25T01:11:32.505Z,1.60
2023-01-25T01:12:37.198Z,1.60
2023-01-25T01:13:40.740Z,1.60
2023-01-25T01:14:46.573Z,1.60
2023-01-25T01:15:55.155Z,1.60
2023-01-25T01:17:01.216Z,1.50
2023-01-25T01:18:04.104Z,1.60
2023-01-25T01:19:07.692Z,1.60
2023-01-25T01:20:13.159Z,1.50
2023-01-25T01:21:20.053Z,1.50
2023-01-25T01:22:23.936Z,1.50
2023-01-25T01:23:29.685Z,1.50
2023-01-25T01:24:33.335Z,1.50
2023-01-25T01:25:36.450Z,1.50
2023-01-25T01:26:40.056Z,1.50
2023-01-25T01:27:42.591Z,1.50
2023-01-25T01:28:46.906Z,1.50
2023-01-25T01:29:51.533Z,1.50
2023-01-25T01:30:54.780Z,1.50
2023-01-25T01:31:58.567Z,1.50
2023-01-25T01:33:02.094Z,1.50
2023-01-25T01:34:06.060Z,1.40
2023-01-25T01:35:10.153Z,1.40
2023-01-25T01:36:17.172Z,1.40
2023-01-25T01:37:19.587Z,1.40
2023-01-25T01:38:23.106Z,1.40
2023-01-25T01:39:26.877Z,1.40
2023-01-25T01:40:30.797Z,1.40
2023-01-25T01:41:33.629Z,1.40
2023-01-25T01:43:04.118Z,1.40
2023-01-25T01:44:55.826Z,1.40
2023-01-25T01:46:15.622Z,1.40
2023-01-25T01:47:24.067Z,1.40
2023-01-25T01:48:37.326Z,1.40
2023-01-25T01:49:42.611Z,1.40
2023-01-25T01:50:57.257Z,1.40
2023-01-25T01:52:04.892Z,1.40
2023-01-25T01:53:11.798Z,1.40
2023-01-25T01:54:21.299Z,1.40
2023-01-25T01:55:29.185Z,1.40
2023-01-25T01:56:41.509Z,1.40
2023-01-25T01:57:48.801Z,1.40
2023-01-25T01:58:57.471Z,1.40
2023-01-25T02:00:05.621Z,1.40
2023-01-25T02:01:18.206Z,1.40
2023-01-25T02:02:21.240Z,1.50
2023-01-25T02:03:29.095Z,1.50
2023-01-25T02:04:32.643Z,1.50
2023-01-25T02:05:45.214Z,1.50
2023-01-25T02:06:53.355Z,1.50
2023-01-25T02:07:58.596Z,1.50
2023-01-25T02:09:03.044Z,1.50
2023-01-25T02:10:12.477Z,1.50
2023-01-25T02:11:19.565Z,1.50
2023-01-25T02:12:26.823Z,1.50
2023-01-25T02:13:31.124Z,1.50
2023-01-25T02:14:35.966Z,1.50
2023-01-25T02:15:44.617Z,1.50
2023-01-25T02:16:48.489Z,1.50
2023-01-25T02:17:52.325Z,1.50
2023-01-25T02:19:02.042Z,1.50
2023-01-25T02:20:18.008Z,1.50
2023-01-25T02:21:24.411Z,1.50
2023-01-25T02:22:37.536Z,1.50
2023-01-25T02:23:48.600Z,1.50
2023-01-25T02:25:09.344Z,1.50
2023-01-25T02:26:12.497Z,1.50
2023-01-25T02:27:15.966Z,1.50
2023-01-25T02:28:24.407Z,1.50
2023-01-25T02:29:30.780Z,1.50
2023-01-25T02:30:34.221Z,1.50
2023-01-25T02:31:37.999Z,1.50
2023-01-25T02:32:40.700Z,1.50
2023-01-25T02:33:44.396Z,1.50
2023-01-25T02:34:46.834Z,1.50
2023-01-25T02:35:56.168Z,1.50
2023-01-25T02:36:59.475Z,1.50
2023-01-25T02:38:05.803Z,1.50
2023-01-25T02:39:13.172Z,1.50
2023-01-25T02:40:18.959Z,1.50
2023-01-25T02:41:30.360Z,1.50
2023-01-25T02:42:35.665Z,1.50
2023-01-25T02:43:43.207Z,1.50
2023-01-25T02:44:46.824Z,1.50
2023-01-25T02:46:01.269Z,1.50
2023-01-25T02:47:07.876Z,1.50
2023-01-25T02:48:10.466Z,1.50
2023-01-25T02:49:14.073Z,1.50
2023-01-25T02:50:21.652Z,1.50
2023-01-25T02:51:27.798Z,1.50
2023-01-25T02:52:30.651Z,1.50
2023-01-25T02:53:34.833Z,1.50
2023-01-25T02:54:37.658Z,1.50
2023-01-25T02:55:44.271Z,1.50
2023-01-25T02:56:46.954Z,1.50
2023-01-25T02:57:50.414Z,1.50
2023-01-25T02:58:53.410Z,1.50
2023-01-25T02:59:57.201Z,1.50
2023-01-25T03:01:00.923Z,1.50
2023-01-25T03:02:06.220Z,1.50
2023-01-25T03:03:08.688Z,1.50
2023-01-25T03:04:13.045Z,1.50
2023-01-25T03:05:15.746Z,1.50
2023-01-25T03:06:19.442Z,1.50
2023-01-25T03:07:21.977Z,1.50
2023-01-25T03:08:26.423Z,1.50
2023-01-25T03:09:29.726Z,1.50
2023-01-25T03:10:33.217Z,1.50
2023-01-25T03:11:38.113Z,1.50
2023-01-25T03:12:41.635Z,1.50
2023-01-25T03:13:44.052Z,1.50
2023-01-25T03:14:47.523Z,1.50
2023-01-25T03:15:49.960Z,1.50
2023-01-25T03:16:53.803Z,1.50
2023-01-25T03:18:00.003Z,1.50
2023-01-25T03:19:03.818Z,1.50
2023-01-25T03:20:07.832Z,1.50
2023-01-25T03:21:14.713Z,1.50
2023-01-25T03:22:17.369Z,1.50
2023-01-25T03:23:20.936Z,1.50
2023-01-25T03:24:23.500Z,1.50
2023-01-25T03:25:28.611Z,1.50
2023-01-25T03:26:53.440Z,1.50
2023-01-25T03:27:59.982Z,1.50
2023-01-25T03:29:05.536Z,1.50
2023-01-25T03:30:13.863Z,1.50
2023-01-25T03:31:18.077Z,1.50
2023-01-25T03:32:22.029Z,1.50
2023-01-25T03:33:24.665Z,1.50
2023-01-25T03:34:28.354Z,1.50
2023-01-25T03:35:32.091Z,1.40
2023-01-25T03:36:35.739Z,1.40
2023-01-25T03:37:39.284Z,1.40
2023-01-25T03:38:42.786Z,1.40
2023-01-25T03:39:45.993Z,1.40
2023-01-25T03:40:50.210Z,1.40
2023-01-25T03:41:54.759Z,1.40
2023-01-25T03:42:58.479Z,1.40
2023-01-25T03:44:03.204Z,1.40
2023-01-25T03:45:14.392Z,1.40
2023-01-25T03:46:16.937Z,1.40
2023-01-25T03:47:20.541Z,1.40
2023-01-25T03:48:24.250Z,1.30
2023-01-25T03:49:28.003Z,1.30
2023-01-25T03:50:30.562Z,1.30
2023-01-25T03:51:35.144Z,1.30
2023-01-25T03:52:42.123Z,1.30
2023-01-25T03:53:45.475Z,1.30
2023-01-25T03:54:54.021Z,1.30
2023-01-25T03:56:00.160Z,1.30
2023-01-25T03:57:04.435Z,1.20
2023-01-25T03:58:13.532Z,1.20
2023-01-25T03:59:16.392Z,1.20
2023-01-25T04:00:22.221Z,1.20
2023-01-25T04:01:32.161Z,1.20
2023-01-25T04:02:36.163Z,1.20
2023-01-25T04:03:39.379Z,1.20
2023-01-25T04:04:43.207Z,1.20
2023-01-25T04:05:47.088Z,1.20
2023-01-25T04:06:50.514Z,1.20
2023-01-25T04:07:53.871Z,1.20
2023-01-25T04:09:05.835Z,1.20
2023-01-25T04:10:14.406Z,1.20
2023-01-25T04:11:21.650Z,1.20
2023-01-25T04:12:28.441Z,1.20
2023-01-25T04:13:35.123Z,1.20
2023-01-25T04:14:44.354Z,1.20
2023-01-25T04:15:52.611Z,1.20
2023-01-25T04:17:15.023Z,1.20
2023-01-25T04:18:26.604Z,1.20
2023-01-25T04:19:28.991Z,1.20
2023-01-25T04:20:37.616Z,1.20
2023-01-25T04:21:40.015Z,1.20
2023-01-25T04:22:44.109Z,1.20
2023-01-25T04:23:47.683Z,1.20
2023-01-25T04:24:50.194Z,1.20
2023-01-25T04:25:55.199Z,1.20
2023-01-25T04:26:57.817Z,1.20
2023-01-25T04:28:03.385Z,1.20
2023-01-25T04:29:07.205Z,1.20
2023-01-25T04:30:12.617Z,1.10
2023-01-25T04:31:17.034Z,1.10
2023-01-25T04:32:19.852Z,1.10
2023-01-25T04:33:23.941Z,1.20
2023-01-25T04:34:28.512Z,1.10
2023-01-25T04:35:32.192Z,1.10
2023-01-25T04:36:36.236Z,1.10
2023-01-25T04:37:42.725Z,1.10
2023-01-25T04:38:46.427Z,1.10
2023-01-25T04:39:48.899Z,1.10
2023-01-25T04:40:53.296Z,1.10
2023-01-25T04:41:55.649Z,1.10
2023-01-25T04:42:59.448Z,1.10
2023-01-25T04:44:03.331Z,1.10
2023-01-25T04:45:08.495Z,1.10
2023-01-25T04:46:11.212Z,1.10
2023-01-25T04:47:15.958Z,1.10
2023-01-25T04:48:19.605Z,1.10
2023-01-25T04:49:31.044Z,1.10
2023-01-25T04:50:34.661Z,1.10
2023-01-25T04:51:37.136Z,1.10
2023-01-25T04:52:40.656Z,1.10
2023-01-25T04:53:43.163Z,1.10
2023-01-25T04:54:47.045Z,1.10
2023-01-25T04:55:50.125Z,1.10
2023-01-25T04:56:53.818Z,1.10
2023-01-25T04:57:56.482Z,1.10
2023-01-25T04:59:00.279Z,1.10
2023-01-25T05:00:06.672Z,1.10
2023-01-25T05:01:12.854Z,1.10
2023-01-25T05:02:15.588Z,1.10
2023-01-25T05:03:19.023Z,1.10
2023-01-25T05:04:21.904Z,1.00
2023-01-25T05:05:30.289Z,1.10
2023-01-25T05:06:37.110Z,1.00
2023-01-25T05:07:42.088Z,1.00
2023-01-25T05:08:44.566Z,1.00
2023-01-25T05:09:48.068Z,1.00
2023-01-25T05:10:50.423Z,1.00
2023-01-25T05:11:59.774Z,1.00
2023-01-25T05:13:22.207Z,1.00
2023-01-25T05:14:30.167Z,1.00
2023-01-25T05:15:37.546Z,1.00
2023-01-25T05:16:43.258Z,1.00
2023-01-25T05:17:46.911Z,1.00
2023-01-25T05:18:49.534Z,1.00
2023-01-25T05:20:04.880Z,1.00
2023-01-25T05:21:28.093Z,1.00
2023-01-25T05:22:31.564Z,1.00
2023-01-25T05:23:35.573Z,1.00
2023-01-25T05:24:41.778Z,1.00
2023-01-25T05:26:04.757Z,1.00
2023-01-25T05:27:09.486Z,1.00
2023-01-25T05:28:30.892Z,1.00
2023-01-25T05:30:03.684Z,1.00
2023-01-25T05:31:35.716Z,1.00
2023-01-25T05:32:41.529Z,1.00
2023-01-25T05:33:46.994Z,1.00
2023-01-25T05:34:51.111Z,1.00
2023-01-25T05:35:56.208Z,1.00
2023-01-25T05:37:01.135Z,1.00
2023-01-25T05:38:04.236Z,1.00
2023-01-25T05:39:08.774Z,1.00
2023-01-25T05:40:12.638Z,1.00
2023-01-25T05:41:19.280Z,0.90
2023-01-25T05:42:23.140Z,0.90
2023-01-25T05:43:26.455Z,0.90
2023-01-25T05:44:29.184Z,0.90
2023-01-25T05:45:32.610Z,0.90
2023-01-25T05:46:37.354Z,0.90
2023-01-25T05:47:40.822Z,0.90
2023-01-25T05:48:43.389Z,0.90
2023-01-25T05:49:47.771Z,0.90
2023-01-25T05:51:00.281Z,0.90
2023-01-25T05:52:07.393Z,0.90
2023-01-25T05:53:11.732Z,0.90
2023-01-25T05:54:18.452Z,0.90
2023-01-25T05:55:28.412Z,0.90
2023-01-25T05:56:33.961Z,0.80
2023-01-25T05:57:36.674Z,0.80
2023-01-25T05:58:41.192Z,0.80
2023-01-25T05:59:44.034Z,0.80
2023-01-25T06:00:50.115Z,0.80
2023-01-25T06:02:04.804Z,0.80
2023-01-25T06:03:09.020Z,0.80
2023-01-25T06:04:15.514Z,0.80
2023-01-25T06:05:19.061Z,0.80
2023-01-25T06:06:21.891Z,0.80
2023-01-25T06:07:25.791Z,0.80
2023-01-25T06:08:28.982Z,0.80
2023-01-25T06:09:32.755Z,0.80
2023-01-25T06:10:36.078Z,0.80
2023-01-25T06:11:44.489Z,0.80
2023-01-25T06:12:46.887Z,0.80
2023-01-25T06:13:51.474Z,0.80
2023-01-25T06:14:57.313Z,0.80
2023-01-25T06:16:00.792Z,0.80
2023-01-25T06:17:21.931Z,0.80
2023-01-25T06:18:53.449Z,0.80
2023-01-25T06:20:07.396Z,0.80
2023-01-25T06:21:14.683Z,0.80
2023-01-25T06:22:18.011Z,0.80
2023-01-25T06:23:20.677Z,0.80
2023-01-25T06:24:24.154Z,0.80
2023-01-25T06:25:26.860Z,0.80
2023-01-25T06:26:30.435Z,0.80
2023-01-25T06:27:32.885Z,0.80
2023-01-25T06:28:38.884Z,0.80
2023-01-25T06:29:43.926Z,0.80
2023-01-25T06:30:46.787Z,0.80
2023-01-25T06:31:50.479Z,0.80
2023-01-25T06:32:54.590Z,0.80
2023-01-25T06:34:08.885Z,0.70
2023-01-25T06:35:11.605Z,0.70
2023-01-25T06:36:19.528Z,0.70
2023-01-25T06:37:23.401Z,0.70
2023-01-25T06:38:25.818Z,0.70
2023-01-25T06:39:29.785Z,0.80
2023-01-25T06:40:32.297Z,0.70
2023-01-25T06:41:38.384Z,0.70
2023-01-25T06:42:40.843Z,0.70
2023-01-25T06:43:44.284Z,0.70
2023-01-25T06:44:46.792Z,0.70
2023-01-25T06:45:50.165Z,0.70
2023-01-25T06:46:54.148Z,0.70
2023-01-25T06:47:59.085Z,0.70
2023-01-25T06:49:01.581Z,0.70
2023-01-25T06:50:05.400Z,0.70
2023-01-25T06:51:13.858Z,0.70
2023-01-25T06:52:17.404Z,0.70
2023-01-25T06:53:19.881Z,0.70
2023-01-25T06:54:23.466Z,0.70
2023-01-25T06:55:25.992Z,0.70
2023-01-25T06:56:29.599Z,0.60
2023-01-25T06:57:32.144Z,0.60
2023-01-25T06:58:35.830Z,0.60
2023-01-25T06:59:38.357Z,0.60
2023-01-25T07:00:41.873Z,0.60
2023-01-25T07:01:46.593Z,0.60
2023-01-25T07:02:49.235Z,0.60
2023-01-25T07:03:56.298Z,0.60
2023-01-25T07:04:58.694Z,0.60
2023-01-25T07:06:06.601Z,0.60
2023-01-25T07:07:09.298Z,0.60
2023-01-25T07:08:12.777Z,0.60
2023-01-25T07:09:16.594Z,0.60
2023-01-25T07:10:19.079Z,0.60
2023-01-25T07:11:22.473Z,0.60
2023-01-25T07:12:25.998Z,0.60
2023-01-25T07:13:31.058Z,0.60
2023-01-25T07:14:35.100Z,0.60
2023-01-25T07:15:37.519Z,0.60
2023-01-25T07:16:40.999Z,0.60
2023-01-25T07:17:43.458Z,0.60
2023-01-25T07:18:49.916Z,0.60
2023-01-25T07:19:54.776Z,0.60
2023-01-25T07:21:03.664Z,0.60
2023-01-25T07:22:07.178Z,0.60
2023-01-25T07:23:09.562Z,0.60
2023-01-25T07:24:17.042Z,0.60
2023-01-25T07:25:19.656Z,0.60
2023-01-25T07:26:26.833Z,0.60
2023-01-25T07:27:32.720Z,0.60
2023-01-25T07:28:36.290Z,0.70
2023-01-25T07:29:41.257Z,0.70
2023-01-25T07:30:44.290Z,0.70
2023-01-25T07:31:47.828Z,0.70
2023-01-25T07:32:50.251Z,0.70
2023-01-25T07:33:57.235Z,0.70
2023-01-25T07:35:01.108Z,0.70
2023-01-25T07:36:06.067Z,0.70
2023-01-25T07:37:10.263Z,0.70
2023-01-25T07:38:14.776Z,0.70
2023-01-25T07:39:18.550Z,0.70
2023-01-25T07:40:24.393Z,0.70
2023-01-25T07:41:28.240Z,0.70
2023-01-25T07:42:32.183Z,0.80
2023-01-25T07:43:56.338Z,0.70
2023-01-25T07:45:35.088Z,0.80
2023-01-25T07:46:38.604Z,0.70
2023-01-25T07:47:41.317Z,0.70
2023-01-25T07:48:50.990Z,0.70
2023-01-25T07:49:58.423Z,0.70
2023-01-25T07:51:11.699Z,0.70
2023-01-25T07:52:15.189Z,0.70
2023-01-25T07:53:17.834Z,0.70
2023-01-25T07:54:23.006Z,0.70
2023-01-25T07:55:29.581Z,0.70
2023-01-25T07:56:35.129Z,0.70
2023-01-25T07:57:38.658Z,0.70
2023-01-25T07:58:41.101Z,0.70
2023-01-25T07:59:47.941Z,0.70
2023-01-25T08:00:50.443Z,0.70
2023-01-25T08:01:54.117Z,0.70
2023-01-25T08:02:56.585Z,0.70
2023-01-25T08:04:00.186Z,0.70
2023-01-25T08:05:02.741Z,0.70
2023-01-25T08:06:10.294Z,0.70
2023-01-25T08:07:15.290Z,0.70
2023-01-25T08:08:17.805Z,0.70
2023-01-25T08:09:21.710Z,0.70
2023-01-25T08:10:25.217Z,0.70
2023-01-25T08:11:30.843Z,0.70
2023-01-25T08:12:35.135Z,0.70
2023-01-25T08:13:37.693Z,0.70
2023-01-25T08:14:42.355Z,0.70
2023-01-25T08:15:44.815Z,0.70
2023-01-25T08:16:48.539Z,0.70
2023-01-25T08:17:52.079Z,0.70
2023-01-25T08:18:58.247Z,0.70
2023-01-25T08:20:08.285Z,0.70
2023-01-25T08:21:13.100Z,0.70
2023-01-25T08:22:16.887Z,0.70
2023-01-25T08:23:20.525Z,0.70
2023-01-25T08:24:27.249Z,0.70
2023-01-25T08:25:32.065Z,0.70
2023-01-25T08:26:36.606Z,0.70
2023-01-25T08:27:39.954Z,0.70
2023-01-25T08:28:42.423Z,0.70
2023-01-25T08:29:50.484Z,0.70
2023-01-25T08:30:57.492Z,0.70
2023-01-25T08:32:04.308Z,0.70
2023-01-25T08:33:07.913Z,0.80
2023-01-25T08:34:11.575Z,0.70
2023-01-25T08:35:15.612Z,0.70
2023-01-25T08:36:24.156Z,0.70
2023-01-25T08:37:29.745Z,0.70
2023-01-25T08:38:33.769Z,0.70
2023-01-25T08:39:39.929Z,0.70
2023-01-25T08:40:43.261Z,0.70
2023-01-25T08:41:51.716Z,0.70
2023-01-25T08:42:54.107Z,0.70
2023-01-25T08:43:58.766Z,0.70
2023-01-25T08:45:02.841Z,0.70
2023-01-25T08:46:06.495Z,0.70
2023-01-25T08:47:09.925Z,0.70
2023-01-25T08:48:15.633Z,0.70
2023-01-25T08:49:19.139Z,0.70
2023-01-25T08:50:22.547Z,0.80
2023-01-25T08:51:28.973Z,0.80
2023-01-25T08:52:32.601Z,0.80
2023-01-25T08:53:36.217Z,0.80
2023-01-25T08:54:39.634Z,0.80
2023-01-25T08:55:43.168Z,0.80
2023-01-25T08:56:47.136Z,0.80
2023-01-25T08:57:55.107Z,0.80
2023-01-25T08:59:00.237Z,0.80
2023-01-25T09:00:03.810Z,0.80
2023-01-25T09:01:11.296Z,0.80
2023-01-25T09:02:15.201Z,0.80
2023-01-25T09:03:18.373Z,0.80
2023-01-25T09:04:25.378Z,0.80
2023-01-25T09:05:28.905Z,0.80
2023-01-25T09:06:35.370Z,0.80
2023-01-25T09:07:39.981Z,0.80
2023-01-25T09:08:43.911Z,0.80
2023-01-25T09:09:47.593Z,0.80
2023-01-25T09:10:51.023Z,0.80
2023-01-25T09:11:54.795Z,0.80
2023-01-25T09:12:57.336Z,0.80
2023-01-25T09:14:01.138Z,0.80
2023-01-25T09:15:04.669Z,0.80
2023-01-25T09:16:12.618Z,0.80
2023-01-25T09:17:16.131Z,0.80
2023-01-25T09:18:19.659Z,0.80
2023-01-25T09:19:23.087Z,0.80
2023-01-25T09:20:25.911Z,0.80
2023-01-25T09:21:30.548Z,0.90
2023-01-25T09:22:35.745Z,0.90
2023-01-25T09:23:50.571Z,0.90
2023-01-25T09:24:56.663Z,0.90
2023-01-25T09:26:01.058Z,0.90
2023-01-25T09:27:04.576Z,0.90
2023-01-25T09:28:11.536Z,0.90
2023-01-25T09:29:18.261Z,0.90
2023-01-25T09:30:24.686Z,0.90
2023-01-25T09:31:41.516Z,0.90
2023-01-25T09:32:45.332Z,0.90
2023-01-25T09:33:51.884Z,0.90
2023-01-25T09:34:55.347Z,0.90
2023-01-25T09:35:58.127Z,0.90
2023-01-25T09:37:03.832Z,0.90
2023-01-25T09:38:07.853Z,0.90
2023-01-25T09:39:13.440Z,0.90
2023-01-25T09:40:23.392Z,0.90
2023-01-25T09:42:13.924Z,1.00
2023-01-25T09:43:35.739Z,0.90
2023-01-25T09:45:09.802Z,0.90
2023-01-25T09:46:23.760Z,1.00
2023-01-25T09:47:36.055Z,1.00
2023-01-25T09:48:53.885Z,1.00
2023-01-25T09:50:28.225Z,1.00
2023-01-25T09:51:47.495Z,1.00
2023-01-25T09:53:24.402Z,1.00
2023-01-25T09:54:31.699Z,1.00
2023-01-25T09:55:35.352Z,1.00
2023-01-25T09:56:40.999Z,1.00
2023-01-25T09:57:46.224Z,1.00
2023-01-25T09:58:54.533Z,1.00
2023-01-25T10:00:01.841Z,1.00
2023-01-25T10:01:38.274Z,0.90
2023-01-25T10:02:52.037Z,0.90
2023-01-25T10:03:59.929Z,0.90
2023-01-25T10:05:09.606Z,0.90
2023-01-25T10:06:14.334Z,0.90
2023-01-25T10:07:23.494Z,0.90
2023-01-25T10:08:34.071Z,0.90
2023-01-25T10:09:46.160Z,0.90
2023-01-25T10:10:55.860Z,0.90
2023-01-25T10:12:05.856Z,0.90
2023-01-25T10:13:11.950Z,0.90
2023-01-25T10:14:18.720Z,0.90
2023-01-25T10:15:24.327Z,0.90
2023-01-25T10:16:33.377Z,0.90
2023-01-25T10:17:39.353Z,0.90
2023-01-25T10:18:57.830Z,0.90
2023-01-25T10:20:20.201Z,0.90
2023-01-25T10:21:29.312Z,0.90
2023-01-25T10:22:36.440Z,0.90
2023-01-25T10:24:09.320Z,0.90
2023-01-25T10:25:30.420Z,0.90
2023-01-25T10:26:36.091Z,0.90
2023-01-25T10:27:47.181Z,0.90
2023-01-25T10:29:00.458Z,0.90
2023-01-25T10:30:27.916Z,0.90
2023-01-25T10:31:41.260Z,1.00
2023-01-25T10:32:55.284Z,1.00
2023-01-25T10:34:01.707Z,1.00
2023-01-25T10:35:29.164Z,1.00
2023-01-25T10:36:38.124Z,1.00
2023-01-25T10:37:42.054Z,1.00
2023-01-25T10:38:49.775Z,1.00
2023-01-25T10:40:03.236Z,1.00
2023-01-25T10:41:15.123Z,1.00
2023-01-25T10:42:20.117Z,1.00
2023-01-25T10:43:24.659Z,1.00
2023-01-25T10:44:29.004Z,1.00
2023-01-25T10:45:32.901Z,1.00
2023-01-25T10:46:36.996Z,1.10
2023-01-25T10:47:43.830Z,1.10
2023-01-25T10:48:47.411Z,1.00
2023-01-25T10:49:53.953Z,1.10
2023-01-25T10:50:58.802Z,1.10
2023-01-25T10:52:21.169Z,1.10
2023-01-25T10:53:32.232Z,1.10
2023-01-25T10:54:39.346Z,1.10
2023-01-25T10:56:00.919Z,1.10
2023-01-25T10:57:07.431Z,1.10
2023-01-25T10:58:36.645Z,1.10
2023-01-25T10:59:40.226Z,1.10
2023-01-25T11:00:44.664Z,1.10
2023-01-25T11:01:51.998Z,1.10
2023-01-25T11:02:55.770Z,1.10
2023-01-25T11:04:00.494Z,1.10
2023-01-25T11:05:34.400Z,1.10
2023-01-25T11:06:40.480Z,1.10
2023-01-25T11:07:44.076Z,1.00
2023-01-25T11:08:47.503Z,1.10
2023-01-25T11:11:43.017Z,1.00
2023-01-25T11:12:45.653Z,1.00
2023-01-25T11:13:50.711Z,1.00
2023-01-25T11:14:54.157Z,1.00
2023-01-25T11:16:22.123Z,1.10
2023-01-25T11:17:30.306Z,1.00
2023-01-25T11:18:36.914Z,1.10
2023-01-25T11:19:42.088Z,1.10
2023-01-25T11:20:46.244Z,1.10
2023-01-25T11:21:53.618Z,1.10
2023-01-25T11:22:58.757Z,1.10
2023-01-25T11:24:18.707Z,1.10
2023-01-25T11:25:31.892Z,1.10
2023-01-25T11:26:39.610Z,1.00
2023-01-25T11:27:44.495Z,1.00
2023-01-25T11:28:49.118Z,1.00
2023-01-25T11:30:13.432Z,1.00
2023-01-25T11:31:23.974Z,1.00
2023-01-25T11:32:27.715Z,1.00
2023-01-25T11:33:32.509Z,1.00
2023-01-25T11:34:35.901Z,1.00
2023-01-25T11:36:03.515Z,1.00
2023-01-25T11:37:36.791Z,1.00
2023-01-25T11:38:52.999Z,1.00
2023-01-25T11:40:13.305Z,1.00
2023-01-25T11:41:28.191Z,1.00
2023-01-25T11:42:43.525Z,1.00
2023-01-25T11:44:52.304Z,1.00
2023-01-25T11:46:29.041Z,1.10
2023-01-25T11:47:51.151Z,1.10
2023-01-25T11:49:20.428Z,1.10
2023-01-25T11:50:32.846Z,1.10
2023-01-25T11:51:44.929Z,1.20
2023-01-25T11:53:31.150Z,1.20
2023-01-25T11:55:00.495Z,1.20
2023-01-25T11:56:41.988Z,1.20
2023-01-25T11:58:07.618Z,1.20
2023-01-25T11:59:49.358Z,1.20
2023-01-25T12:01:10.809Z,1.20
2023-01-25T12:03:11.520Z,1.20
2023-01-25T12:04:43.194Z,1.10
2023-01-25T12:06:01.500Z,1.10
2023-01-25T12:07:08.565Z,1.10
2023-01-25T12:08:33.010Z,1.10
2023-01-25T12:09:54.731Z,1.10
2023-01-25T12:11:09.052Z,1.10
2023-01-25T12:12:25.847Z,1.10
2023-01-25T12:13:43.032Z,1.10
2023-01-25T12:15:07.212Z,1.10
2023-01-25T12:16:30.390Z,1.10
2023-01-25T12:18:00.309Z,1.10
2023-01-25T12:19:33.575Z,1.10
2023-01-25T12:21:02.359Z,1.10
2023-01-25T12:22:39.016Z,1.10
2023-01-25T12:24:05.400Z,1.10
2023-01-25T12:25:27.195Z,1.10
2023-01-25T12:26:40.055Z,1.10
2023-01-25T12:28:05.438Z,1.10
2023-01-25T12:29:29.691Z,1.10
2023-01-25T12:30:53.956Z,1.00
2023-01-25T12:32:07.073Z,1.00
2023-01-25T12:33:32.742Z,1.00
2023-01-25T12:34:39.861Z,1.00
2023-01-25T12:36:00.031Z,1.00
2023-01-25T12:37:19.078Z,1.00
2023-01-25T12:38:29.478Z,1.00
2023-01-25T12:40:13.679Z,1.00
2023-01-25T12:41:32.718Z,1.00
2023-01-25T12:43:04.114Z,1.00
2023-01-25T12:44:19.634Z,1.00
2023-01-25T12:45:28.162Z,1.00
2023-01-25T12:46:41.588Z,1.00
2023-01-25T12:47:50.509Z,1.00
2023-01-25T12:48:58.855Z,1.00
2023-01-25T12:50:11.168Z,1.00
2023-01-25T12:51:17.553Z,1.00
2023-01-25T12:52:28.500Z,1.00
2023-01-25T12:53:39.467Z,1.00
2023-01-25T12:54:46.097Z,1.00
2023-01-25T12:55:51.865Z,1.00
2023-01-25T12:57:06.088Z,1.00
2023-01-25T12:58:26.518Z,1.00
2023-01-25T12:59:48.112Z,1.00
2023-01-25T13:01:00.756Z,1.00
2023-01-25T13:02:24.414Z,0.90
2023-01-25T13:03:41.418Z,0.90
2023-01-25T13:05:02.540Z,0.90
2023-01-25T13:06:19.768Z,0.90
2023-01-25T13:07:35.622Z,0.90
2023-01-25T13:08:51.543Z,0.90
2023-01-25T13:10:00.768Z,0.80
2023-01-25T13:11:18.483Z,0.80
2023-01-25T13:12:22.031Z,0.80
2023-01-25T13:13:28.679Z,0.80
2023-01-25T13:14:38.012Z,0.80
2023-01-25T13:15:43.365Z,0.90
2023-01-25T13:16:53.873Z,0.90
2023-01-25T13:18:02.739Z,0.90
2023-01-25T13:19:06.300Z,0.90
2023-01-25T13:20:52.919Z,0.90
2023-01-25T13:22:01.292Z,0.90
2023-01-25T13:23:30.876Z,0.90
2023-01-25T13:24:56.558Z,0.90
2023-01-25T13:26:55.603Z,0.90
2023-01-25T13:28:43.342Z,0.90
2023-01-25T13:29:47.270Z,0.90
2023-01-25T13:30:56.057Z,0.90
2023-01-25T13:32:00.430Z,0.90
2023-01-25T13:33:10.087Z,0.90
2023-01-25T13:34:34.059Z,0.90
2023-01-25T13:35:43.485Z,1.00
2023-01-25T13:36:47.169Z,1.00
2023-01-25T13:38:06.822Z,1.00
2023-01-25T13:39:43.789Z,1.00
2023-01-25T13:41:03.696Z,1.00
2023-01-25T13:42:23.082Z,1.00
2023-01-25T13:43:26.647Z,1.00
2023-01-25T13:44:43.753Z,1.00
2023-01-25T13:45:53.957Z,1.00
2023-01-25T13:46:59.334Z,1.00
2023-01-25T13:48:17.239Z,0.90
2023-01-25T13:49:29.442Z,0.90
2023-01-25T13:50:38.239Z,0.90
2023-01-25T13:51:46.345Z,0.90
2023-01-25T13:53:00.896Z,0.90
2023-01-25T13:54:03.591Z,0.90
2023-01-25T13:55:19.186Z,0.90
2023-01-25T13:56:30.319Z,0.90
2023-01-25T13:57:34.016Z,0.90
2023-01-25T13:58:48.057Z,0.90
2023-01-25T14:00:16.795Z,0.90
2023-01-25T14:01:23.887Z,0.90
2023-01-25T14:02:29.989Z,0.90
2023-01-25T14:03:37.989Z,0.90
2023-01-25T14:04:41.493Z,0.90
2023-01-25T14:05:52.606Z,0.90
2023-01-25T14:07:00.447Z,0.90
2023-01-25T14:08:03.536Z,0.90
2023-01-25T14:09:16.817Z,0.90
2023-01-25T14:10:25.616Z,0.80
2023-01-25T14:11:32.237Z,0.80
2023-01-25T14:12:40.072Z,0.80
2023-01-25T14:14:03.960Z,0.80
2023-01-25T14:15:29.715Z,0.80
2023-01-25T14:16:32.846Z,0.80
2023-01-25T14:17:36.244Z,0.80
2023-01-25T14:18:43.095Z,0.80
2023-01-25T14:19:50.173Z,0.70
2023-01-25T14:20:53.697Z,0.70
2023-01-25T14:22:22.006Z,0.70
2023-01-25T14:23:28.317Z,0.70
2023-01-25T14:24:30.865Z,0.70
2023-01-25T14:25:35.089Z,0.70
2023-01-25T14:26:42.021Z,0.70
2023-01-25T14:27:48.350Z,0.70
2023-01-25T14:29:01.483Z,0.70
2023-01-25T14:30:07.016Z,0.70
2023-01-25T14:31:24.682Z,0.60
2023-01-25T14:32:29.394Z,0.60
2023-01-25T14:33:37.912Z,0.60
2023-01-25T14:34:41.913Z,0.60
2023-01-25T14:36:11.562Z,0.60
2023-01-25T14:37:20.823Z,0.60
2023-01-25T14:38:29.985Z,0.60
2023-01-25T14:39:34.553Z,0.60
2023-01-25T14:40:39.915Z,0.60
2023-01-25T14:41:59.876Z,0.60
2023-01-25T14:43:03.312Z,0.60
2023-01-25T14:44:13.522Z,0.60
2023-01-25T14:45:18.582Z,0.60
2023-01-25T14:46:26.981Z,0.60
2023-01-25T14:47:31.983Z,0.60
2023-01-25T14:48:41.669Z,0.60
2023-01-25T14:49:46.472Z,0.60
2023-01-25T14:50:49.134Z,0.60
2023-01-25T14:52:01.836Z,0.60
2023-01-25T14:53:15.419Z,0.60
2023-01-25T14:54:22.451Z,0.50
2023-01-25T14:55:25.588Z,0.50
2023-01-25T14:56:38.267Z,0.50
2023-01-25T14:57:42.888Z,0.50
2023-01-25T14:58:50.939Z,0.50
2023-01-25T15:00:04.030Z,0.50
2023-01-25T15:01:26.167Z,0.50
2023-01-25T15:02:38.170Z,0.50
2023-01-25T15:03:47.745Z,0.50
2023-01-25T15:05:04.924Z,0.50
2023-01-25T15:06:17.384Z,0.50
2023-01-25T15:07:37.327Z,0.50
2023-01-25T15:08:42.442Z,0.50
2023-01-25T15:10:05.735Z,0.50
2023-01-25T15:11:37.837Z,0.50
2023-01-25T15:12:41.307Z,0.40
2023-01-25T15:13:43.887Z,0.40
2023-01-25T15:14:50.394Z,0.40
2023-01-25T15:15:58.094Z,0.40
2023-01-25T15:17:00.593Z,0.50